Time;durP1;ratioP1;P1;durP2;ratioP2;P2;SDS_P1;SDS_P2;PMS_P1;PMS_P2;Temp;Humidity;BMP_temperature;BMP_pressure;BME280_temperature;BME280_humidity;BME280_pressure;Samples;Min_cycle;Max_cycle;Signal;HPM_P1;HPM_P2
2022/10/21 00:02:11;;;;;;;57.57;43.23;;;;;;;11.69;100.00;99746.19;5067860;28;20228;-72
2022/10/21 00:04:37;;;;;;;67.23;46.23;;;;;;;11.74;100.00;99749.28;5048300;28;20178;-72
2022/10/21 00:07:02;;;;;;;61.07;45.20;;;;;;;11.73;100.00;99756.19;5053223;28;20525;-72
2022/10/21 00:09:27;;;;;;;60.67;44.57;;;;;;;11.91;100.00;99764.47;5053964;28;20246;-72
2022/10/21 00:11:53;;;;;;;59.70;41.83;;;;;;;12.10;100.00;99784.72;5069423;28;20227;-72
2022/10/21 00:14:18;;;;;;;56.90;41.43;;;;;;;12.19;100.00;99774.72;5045775;28;20590;-71
2022/10/21 00:16:44;;;;;;;65.67;43.03;;;;;;;12.08;100.00;99762.53;5053120;28;20181;-72
2022/10/21 00:19:09;;;;;;;54.83;41.30;;;;;;;12.09;100.00;99775.34;5053690;28;20190;-72
2022/10/21 00:21:35;;;;;;;61.00;43.67;;;;;;;12.25;100.00;99774.31;5057884;28;20258;-71
2022/10/21 00:24:01;;;;;;;59.63;43.43;;;;;;;12.22;100.00;99765.03;5046726;28;20181;-71
2022/10/21 00:26:26;;;;;;;68.73;42.70;;;;;;;12.33;100.00;99773.81;5053089;28;20288;-72
2022/10/21 00:28:56;;;;;;;70.17;44.63;;;;;;;12.26;100.00;99778.56;5053589;28;20216;-72
2022/10/21 00:31:21;;;;;;;55.57;41.07;;;;;;;12.35;100.00;99787.44;5058193;28;20236;-71
2022/10/21 00:33:47;;;;;;;59.77;41.07;;;;;;;12.50;100.00;99791.56;5056272;28;20495;-72
2022/10/21 00:36:14;;;;;;;64.70;44.23;;;;;;;12.45;100.00;99797.97;5052771;28;20644;-69
2022/10/21 00:38:41;;;;;;;53.70;39.97;;;;;;;12.30;100.00;99781.75;5053206;28;20182;-72
2022/10/21 00:41:07;;;;;;;56.23;41.50;;;;;;;12.47;100.00;99783.22;5051274;28;20235;-71
2022/10/21 00:44:01;;;;;;;66.17;42.67;;;;;;;12.21;100.00;99780.63;5056560;28;20169;-72
2022/10/21 00:46:29;;;;;;;57.07;40.00;;;;;;;12.36;100.00;99781.34;5051133;28;20656;-71
2022/10/21 00:48:57;;;;;;;54.40;39.60;;;;;;;12.43;100.00;99769.69;5053312;28;20209;-71
2022/10/21 00:51:23;;;;;;;68.37;42.77;;;;;;;12.31;100.00;99781.66;5055719;28;20251;-72
2022/10/21 00:53:50;;;;;;;65.33;42.30;;;;;;;12.41;100.00;99767.19;5063183;28;20260;-72
2022/10/21 00:56:23;;;;;;;61.77;38.53;;;;;;;12.36;100.00;99771.84;5052388;28;20189;-69
2022/10/21 00:58:50;;;;;;;72.70;40.20;;;;;;;12.41;100.00;99766.38;5053029;28;20196;-72
2022/10/21 01:01:17;;;;;;;66.83;40.80;;;;;;;12.38;100.00;99748.56;5062055;28;20235;-71
2022/10/21 01:03:42;;;;;;;46.13;37.20;;;;;;;12.27;100.00;99757.81;5041092;28;20538;-72
2022/10/21 01:06:10;;;;;;;51.37;36.40;;;;;;;12.45;100.00;99743.78;5045321;28;20246;-71
2022/10/21 01:08:36;;;;;;;64.17;39.07;;;;;;;12.34;100.00;99745.34;5034333;28;20203;-72
2022/10/21 01:11:03;;;;;;;60.63;40.23;;;;;;;12.35;100.00;99735.84;5058858;28;20224;-72
2022/10/21 01:14:06;;;;;;;66.83;39.50;;;;;;;12.15;100.00;99732.03;5052544;28;20216;-72
2022/10/21 01:16:35;;;;;;;61.50;36.17;;;;;;;12.21;100.00;99718.72;5052365;28;20193;-72
2022/10/21 01:19:22;;;;;;;55.10;36.07;;;;;;;12.20;100.00;99711.91;5052724;28;20256;-71
2022/10/21 01:22:11;;;;;;;173.20;39.07;;;;;;;12.25;100.00;99690.06;5069017;28;20591;-72
2022/10/21 01:24:48;;;;;;;217.83;38.50;;;;;;;12.39;100.00;99689.13;5042880;28;20543;-72
2022/10/21 01:27:23;;;;;;;536.67;52.17;;;;;;;12.38;100.00;99687.47;5051915;28;20195;-69
2022/10/21 01:30:12;;;;;;;200.50;33.03;;;;;;;12.20;100.00;99668.09;5052475;28;20311;-71
2022/10/21 01:33:02;;;;;;;493.93;38.17;;;;;;;12.25;100.00;99663.44;5041060;28;20232;-72
2022/10/21 01:35:38;;;;;;;220.20;34.50;;;;;;;12.41;100.00;99661.44;5052456;28;20189;-72
2022/10/21 01:38:28;;;;;;;329.10;35.17;;;;;;;12.24;100.00;99665.19;5051479;28;20169;-70
2022/10/21 01:41:07;;;;;;;191.07;30.23;;;;;;;12.35;100.00;99674.75;5055026;28;20228;-72
2022/10/21 01:43:55;;;;;;;255.87;32.40;;;;;;;12.32;100.00;99663.84;5055372;28;20519;-73
2022/10/21 01:46:30;;;;;;;233.03;34.77;;;;;;;12.42;100.00;99665.66;5051616;28;20181;-72
2022/10/21 01:49:03;;;;;;;334.53;40.13;;;;;;;12.47;100.00;99669.72;5042419;28;20212;-72
2022/10/21 01:51:29;;;;;;;199.60;30.33;;;;;;;12.53;100.00;99657.19;5060868;28;20224;-72
2022/10/21 01:54:03;;;;;;;189.10;28.80;;;;;;;12.51;100.00;99653.06;5050519;28;20614;-72
2022/10/21 01:56:30;;;;;;;152.67;29.20;;;;;;;12.42;100.00;99637.31;5051319;28;20179;-72
2022/10/21 01:58:57;;;;;;;76.47;25.37;;;;;;;12.40;100.00;99659.81;5043042;28;20187;-72
2022/10/21 02:01:23;;;;;;;541.37;47.87;;;;;;;12.40;100.00;99677.03;5061681;28;20262;-72
2022/10/21 02:03:55;;;;;;;393.97;37.83;;;;;;;12.43;100.00;99661.34;5049788;28;20173;-72
2022/10/21 02:06:21;;;;;;;267.60;31.80;;;;;;;12.48;100.00;99659.28;5050908;28;20185;-72
2022/10/21 02:08:46;;;;;;;172.50;28.93;;;;;;;12.36;100.00;99657.53;5051532;28;20606;-72
2022/10/21 02:11:12;;;;;;;201.47;31.53;;;;;;;12.32;100.00;99661.28;5060251;28;20344;-72
2022/10/21 02:13:51;;;;;;;312.00;37.70;;;;;;;12.40;100.00;99646.91;5050589;28;20598;-72
2022/10/21 02:16:20;;;;;;;263.30;37.73;;;;;;;12.40;100.00;99656.41;5051031;28;20208;-71
2022/10/21 02:18:45;;;;;;;108.23;27.60;;;;;;;12.29;100.00;99648.56;5051067;28;20209;-72
2022/10/21 02:21:17;;;;;;;157.40;29.60;;;;;;;12.26;100.00;99660.75;5059723;28;20314;-72
2022/10/21 02:23:56;;;;;;;222.90;33.33;;;;;;;12.15;100.00;99665.00;5049290;28;20169;-72
2022/10/21 02:26:23;;;;;;;140.10;31.70;;;;;;;12.26;100.00;99658.16;5049333;28;21102;-71
2022/10/21 02:28:49;;;;;;;53.53;25.23;;;;;;;12.27;100.00;99662.41;5051383;28;20256;-72
2022/10/21 02:31:36;;;;;;;216.40;30.73;;;;;;;12.16;100.00;99656.34;5054634;28;20282;-72
2022/10/21 02:34:29;;;;;;;109.67;27.93;;;;;;;12.01;100.00;99651.28;5044812;28;20332;-71
2022/10/21 02:37:21;;;;;;;225.73;33.60;;;;;;;11.96;100.00;99653.34;5040545;28;20181;-71
2022/10/21 02:39:48;;;;;;;220.43;32.43;;;;;;;11.97;100.00;99634.41;5037147;28;20203;-72
2022/10/21 02:42:21;;;;;;;31.20;24.07;;;;;;;11.84;100.00;99634.34;5061273;28;20228;-72
2022/10/21 02:44:47;;;;;;;100.67;28.33;;;;;;;11.89;100.00;99629.69;5048857;28;20267;-72
2022/10/21 02:47:14;;;;;;;44.33;25.60;;;;;;;11.86;100.00;99624.78;5043372;28;20629;-71
2022/10/21 02:49:39;;;;;;;60.07;25.10;;;;;;;11.92;100.00;99623.50;5047926;28;20240;-72
2022/10/21 02:52:05;;;;;;;53.90;24.30;;;;;;;11.87;100.00;99621.28;5064273;28;20256;-70
2022/10/21 02:54:30;;;;;;;156.70;31.87;;;;;;;11.73;100.00;99614.47;5045950;28;20181;-71
2022/10/21 02:56:55;;;;;;;49.73;24.83;;;;;;;11.76;100.00;99621.19;5050541;28;20181;-72
2022/10/21 02:59:21;;;;;;;34.70;24.93;;;;;;;11.81;100.00;99620.84;5051123;28;20208;-73
2022/10/21 03:01:46;;;;;;;42.97;24.60;;;;;;;11.88;100.00;99622.09;5046488;28;20289;-73
2022/10/21 03:04:11;;;;;;;31.63;23.33;;;;;;;11.79;100.00;99624.38;5048283;28;20181;-72
2022/10/21 03:06:36;;;;;;;32.83;25.07;;;;;;;11.88;100.00;99629.81;5046713;28;20219;-74
2022/10/21 03:09:02;;;;;;;31.50;24.17;;;;;;;12.01;100.00;99632.44;5049843;28;20181;-72
2022/10/21 03:11:27;;;;;;;33.30;25.27;;;;;;;12.13;100.00;99618.72;5064007;28;20234;-72
2022/10/21 03:13:52;;;;;;;32.97;25.60;;;;;;;12.04;100.00;99614.97;5055920;28;20240;-72
2022/10/21 03:16:18;;;;;;;65.90;27.03;;;;;;;12.07;100.00;99611.41;5049061;28;20295;-73
2022/10/21 03:18:43;;;;;;;74.33;30.10;;;;;;;12.10;100.00;99596.50;5038791;28;20651;-73
2022/10/21 03:21:08;;;;;;;33.30;25.30;;;;;;;12.02;100.00;99601.38;5052274;28;20216;-72
2022/10/21 03:23:33;;;;;;;37.13;27.17;;;;;;;12.00;100.00;99599.84;5064882;28;20276;-72
2022/10/21 03:25:59;;;;;;;32.17;24.80;;;;;;;12.04;100.00;99596.13;5050919;28;20274;-72
2022/10/21 03:28:24;;;;;;;34.77;24.67;;;;;;;12.05;100.00;99596.00;5050223;28;20264;-73
2022/10/21 03:30:49;;;;;;;31.53;24.17;;;;;;;11.94;100.00;99590.75;5033961;28;20239;-72
2022/10/21 03:33:15;;;;;;;28.83;24.33;;;;;;;12.01;100.00;99601.50;5074259;28;20198;-72
2022/10/21 03:35:40;;;;;;;28.33;23.60;;;;;;;12.11;100.00;99600.75;5054776;28;20610;-72
2022/10/21 03:38:05;;;;;;;31.63;24.47;;;;;;;12.22;100.00;99591.47;5053853;28;20177;-72
2022/10/21 03:40:30;;;;;;;27.23;24.13;;;;;;;12.11;100.00;99590.44;5051896;28;20227;-72
2022/10/21 03:42:57;;;;;;;31.13;24.20;;;;;;;12.11;100.00;99581.88;5072186;28;20231;-72
2022/10/21 03:45:22;;;;;;;34.40;25.17;;;;;;;12.17;100.00;99594.34;5046223;28;20201;-72
2022/10/21 03:47:47;;;;;;;37.47;24.83;;;;;;;12.24;100.00;99594.72;5053647;28;20201;-72
2022/10/21 03:50:13;;;;;;;48.43;27.80;;;;;;;12.25;100.00;99588.66;5046638;28;20675;-73
2022/10/21 03:52:38;;;;;;;54.83;27.07;;;;;;;12.17;100.00;99583.19;5072860;28;20201;-73
2022/10/21 03:55:03;;;;;;;57.60;26.10;;;;;;;12.06;100.00;99576.22;5050847;28;20180;-73
2022/10/21 03:57:29;;;;;;;47.10;27.20;;;;;;;12.33;100.00;99580.38;5053575;28;20181;-72
2022/10/21 03:59:54;;;;;;;40.20;26.07;;;;;;;12.44;100.00;99577.88;5054081;28;20193;-73
2022/10/21 04:02:19;;;;;;;29.87;23.60;;;;;;;12.46;100.00;99582.94;5069366;28;20220;-73
2022/10/21 04:04:45;;;;;;;24.80;21.90;;;;;;;12.37;100.00;99571.50;5045372;28;20597;-72
2022/10/21 04:07:10;;;;;;;32.87;25.27;;;;;;;12.56;100.00;99577.00;5053562;28;20211;-72
2022/10/21 04:09:35;;;;;;;28.87;24.90;;;;;;;12.59;100.00;99581.94;5053948;28;20702;-72
2022/10/21 04:12:00;;;;;;;33.27;24.47;;;;;;;12.66;100.00;99589.25;5058876;28;20238;-72
2022/10/21 04:14:26;;;;;;;40.73;32.13;;;;;;;12.69;100.00;99576.09;5042216;28;20264;-72
2022/10/21 04:16:51;;;;;;;29.77;25.17;;;;;;;12.70;100.00;99578.59;5053025;28;20227;-72
2022/10/21 04:19:18;;;;;;;33.63;24.53;;;;;;;12.78;100.00;99575.47;5052361;28;20182;-73
2022/10/21 04:21:44;;;;;;;27.97;22.97;;;;;;;12.61;100.00;99581.81;5058190;28;20307;-72
2022/10/21 04:24:09;;;;;;;30.27;23.40;;;;;;;12.64;100.00;99578.19;5042316;28;20184;-73
2022/10/21 04:26:35;;;;;;;23.53;21.13;;;;;;;12.65;100.00;99585.84;5053239;28;20189;-72
2022/10/21 04:29:00;;;;;;;31.20;21.53;;;;;;;12.74;100.00;99576.63;5053315;28;20381;-71
2022/10/21 04:31:25;;;;;;;22.77;20.37;;;;;;;12.78;100.00;99574.66;5049816;28;20237;-72
2022/10/21 04:33:50;;;;;;;25.60;22.03;;;;;;;12.94;100.00;99567.44;5055723;28;20213;-73
2022/10/21 04:36:17;;;;;;;24.33;21.13;;;;;;;13.01;100.00;99562.63;5052762;28;20182;-70
2022/10/21 04:38:42;;;;;;;26.33;21.53;;;;;;;12.99;100.00;99555.00;5053399;28;20189;-72
2022/10/21 04:41:07;;;;;;;27.23;22.10;;;;;;;12.88;100.00;99557.56;5056711;28;20224;-72
2022/10/21 04:43:32;;;;;;;27.03;22.20;;;;;;;13.02;100.00;99554.78;5064651;28;20188;-72
2022/10/21 04:45:58;;;;;;;30.00;24.00;;;;;;;13.03;100.00;99553.84;5053172;28;20219;-72
2022/10/21 04:48:23;;;;;;;27.77;23.93;;;;;;;13.00;100.00;99546.34;5052606;28;20185;-72
2022/10/21 04:50:50;;;;;;;32.17;23.30;;;;;;;13.08;100.00;99550.94;5055570;28;20685;-72
2022/10/21 04:53:16;;;;;;;37.43;23.83;;;;;;;13.05;100.00;99551.97;5061636;28;20201;-71
2022/10/21 04:55:41;;;;;;;30.97;24.20;;;;;;;12.98;100.00;99542.22;5053184;28;20223;-72
2022/10/21 04:58:06;;;;;;;26.07;22.20;;;;;;;12.94;100.00;99539.03;5052008;28;20177;-72
2022/10/21 05:00:31;;;;;;;35.77;24.63;;;;;;;12.86;100.00;99546.50;5050485;28;20227;-72
2022/10/21 05:02:57;;;;;;;31.30;23.43;;;;;;;12.98;100.00;99543.03;5062867;28;20652;-72
2022/10/21 05:05:23;;;;;;;29.43;23.47;;;;;;;13.03;100.00;99545.28;5053063;28;20177;-72
2022/10/21 05:07:48;;;;;;;30.73;23.33;;;;;;;13.08;100.00;99538.84;5052426;28;20181;-73
2022/10/21 05:10:13;;;;;;;34.77;24.77;;;;;;;13.05;100.00;99540.84;5045481;28;20238;-72
2022/10/21 05:12:38;;;;;;;35.20;24.87;;;;;;;13.08;100.00;99541.44;5071925;28;20213;-73
2022/10/21 05:15:04;;;;;;;37.67;24.60;;;;;;;13.03;100.00;99534.94;5048772;28;20207;-73
2022/10/21 05:17:29;;;;;;;37.63;24.13;;;;;;;13.06;100.00;99537.28;5052102;28;20190;-72
2022/10/21 05:19:55;;;;;;;34.03;24.97;;;;;;;13.18;100.00;99523.47;5052661;28;20217;-73
2022/10/21 05:22:20;;;;;;;35.27;24.37;;;;;;;13.27;100.00;99527.13;5068724;28;20628;-72
2022/10/21 05:24:45;;;;;;;35.27;26.07;;;;;;;13.28;100.00;99523.59;5044319;28;20173;-72
2022/10/21 05:27:10;;;;;;;36.37;23.93;;;;;;;13.27;100.00;99524.53;5051883;28;20209;-72
2022/10/21 05:29:36;;;;;;;39.53;24.93;;;;;;;13.33;100.00;99515.53;5050950;28;20174;-74
2022/10/21 05:32:01;;;;;;;34.57;23.47;;;;;;;13.39;100.00;99513.31;5061955;28;20255;-73
2022/10/21 05:34:26;;;;;;;40.90;25.07;;;;;;;13.28;100.00;99515.84;5049643;28;20654;-73
2022/10/21 05:36:52;;;;;;;42.83;24.50;;;;;;;13.29;100.00;99509.75;5050516;28;20282;-74
2022/10/21 05:39:17;;;;;;;59.57;26.33;;;;;;;13.39;100.00;99523.66;5046206;28;20679;-74
2022/10/21 05:41:42;;;;;;;54.57;26.63;;;;;;;13.34;100.00;99512.81;5048614;28;20254;-73
2022/10/21 05:44:07;;;;;;;60.83;25.53;;;;;;;13.48;100.00;99513.56;5046646;28;20187;-73
2022/10/21 05:46:33;;;;;;;38.63;23.13;;;;;;;13.45;100.00;99517.22;5051229;28;20491;-73
2022/10/21 05:48:58;;;;;;;210.30;34.83;;;;;;;13.40;100.00;99511.56;5051982;28;20217;-73
2022/10/21 05:51:25;;;;;;;70.60;29.07;;;;;;;13.29;100.00;99511.53;5060444;28;20337;-72
2022/10/21 05:53:55;;;;;;;53.07;26.87;;;;;;;13.36;100.00;99510.13;5050414;28;20196;-73
2022/10/21 05:56:20;;;;;;;50.33;26.07;;;;;;;13.31;100.00;99500.16;5036861;28;20667;-72
2022/10/21 05:58:46;;;;;;;45.93;25.47;;;;;;;13.37;100.00;99502.28;5051672;28;20264;-73
2022/10/21 06:01:11;;;;;;;54.07;27.40;;;;;;;13.31;100.00;99501.88;5059885;28;20388;-72
2022/10/21 06:03:36;;;;;;;66.57;25.90;;;;;;;13.26;100.00;99504.84;5051098;28;20181;-73
2022/10/21 06:06:05;;;;;;;68.83;26.57;;;;;;;13.24;100.00;99504.13;5051776;28;20280;-71
2022/10/21 06:08:31;;;;;;;64.90;27.20;;;;;;;13.14;100.00;99514.31;5051044;28;20735;-72
2022/10/21 06:11:04;;;;;;;69.17;26.53;;;;;;;13.11;100.00;99511.13;5056288;28;20228;-72
2022/10/21 06:13:30;;;;;;;68.93;27.07;;;;;;;13.30;100.00;99510.59;5052796;28;20236;-72
2022/10/21 06:15:56;;;;;;;63.80;26.90;;;;;;;13.31;100.00;99507.06;5051575;28;20231;-73
2022/10/21 06:18:21;;;;;;;57.87;25.80;;;;;;;13.17;100.00;99503.78;5042892;28;20296;-74
2022/10/21 06:20:47;;;;;;;40.00;24.73;;;;;;;13.33;100.00;99512.94;5040263;28;20610;-73
2022/10/21 06:23:14;;;;;;;49.87;24.33;;;;;;;13.43;100.00;99508.75;5064376;28;20188;-75
2022/10/21 06:25:39;;;;;;;44.17;24.13;;;;;;;13.54;100.00;99507.94;5048495;28;20177;-75
2022/10/21 06:28:05;;;;;;;45.87;23.40;;;;;;;13.42;100.00;99489.03;5041429;28;20187;-74
2022/10/21 06:30:30;;;;;;;42.97;23.50;;;;;;;13.22;100.00;99490.50;5041430;28;20227;-75
2022/10/21 06:32:55;;;;;;;32.40;21.87;;;;;;;13.04;100.00;99487.56;5059873;28;20297;-76
2022/10/21 06:35:21;;;;;;;30.20;21.93;;;;;;;13.07;100.00;99497.63;5050336;28;20188;-78
2022/10/21 06:37:46;;;;;;;32.93;21.73;;;;;;;13.19;100.00;99486.38;5050047;28;20181;-80
2022/10/21 06:40:11;;;;;;;34.60;21.60;;;;;;;13.05;100.00;99478.88;5042841;28;20525;-77
2022/10/21 06:42:37;;;;;;;28.00;20.40;;;;;;;13.13;100.00;99502.34;5051574;28;20184;-76
2022/10/21 06:45:02;;;;;;;26.43;19.93;;;;;;;13.26;100.00;99519.50;5041545;28;20174;-77
2022/10/21 06:47:27;;;;;;;29.23;20.93;;;;;;;13.23;100.00;99517.97;5050857;28;20287;-77
2022/10/21 06:49:53;;;;;;;28.13;19.03;;;;;;;13.21;100.00;99527.63;5050852;28;20254;-77
2022/10/21 06:52:18;;;;;;;22.87;17.50;;;;;;;13.16;100.00;99540.84;5041776;28;20238;-75
2022/10/21 06:54:44;;;;;;;23.87;15.47;;;;;;;12.94;100.00;99513.22;5051693;28;20177;-74
2022/10/21 06:57:09;;;;;;;23.63;16.17;;;;;;;12.90;100.00;99510.03;5051115;28;20173;-72
2022/10/21 06:59:34;;;;;;;19.87;15.80;;;;;;;13.02;100.00;99525.56;5044448;28;20177;-72
2022/10/21 07:01:59;;;;;;;18.53;14.70;;;;;;;13.12;100.00;99534.25;5053859;28;20223;-72
2022/10/21 07:04:25;;;;;;;21.83;15.87;;;;;;;13.24;100.00;99537.69;5052485;28;20666;-72
2022/10/21 07:06:50;;;;;;;20.00;14.63;;;;;;;13.37;100.00;99545.34;5054305;28;20236;-72
2022/10/21 07:09:15;;;;;;;18.13;14.37;;;;;;;13.42;100.00;99545.03;5054686;28;20178;-72
2022/10/21 07:11:41;;;;;;;17.33;13.13;;;;;;;13.50;100.00;99553.84;5070996;28;20249;-71
2022/10/21 07:14:06;;;;;;;17.10;13.00;;;;;;;13.41;100.00;99567.47;5060099;28;20181;-72
2022/10/21 07:16:34;;;;;;;19.20;13.33;;;;;;;13.47;100.00;99572.19;5068262;28;21044;-71
2022/10/21 07:18:59;;;;;;;20.73;15.00;;;;;;;13.44;100.00;99576.75;5055998;28;20189;-72
2022/10/21 07:21:27;;;;;;;16.60;13.40;;;;;;;13.49;100.00;99574.63;5056040;28;20220;-72
2022/10/21 07:23:54;;;;;;;19.33;14.40;;;;;;;13.41;100.00;99570.06;5061965;28;20600;-72
2022/10/21 07:26:21;;;;;;;20.27;14.63;;;;;;;13.50;100.00;99576.28;5053183;28;20307;-75
2022/10/21 07:28:47;;;;;;;17.97;14.57;;;;;;;13.60;100.00;99584.19;5046043;28;20188;-74
2022/10/21 07:31:19;;;;;;;23.00;14.80;;;;;;;13.66;100.00;99581.94;5023553;28;20225;-78
2022/10/21 07:33:45;;;;;;;22.47;14.40;;;;;;;13.68;100.00;99581.81;5058671;28;20224;-75
2022/10/21 07:36:13;;;;;;;21.87;16.13;;;;;;;13.60;100.00;99576.41;5054406;28;20681;-75
2022/10/21 07:38:40;;;;;;;20.87;15.13;;;;;;;13.54;100.00;99593.19;5042949;28;20231;-79
2022/10/21 07:41:05;;;;;;;17.93;14.97;;;;;;;13.40;100.00;99584.72;5045861;28;20225;-75
2022/10/21 07:43:32;;;;;;;25.17;15.53;;;;;;;13.45;100.00;99573.22;5061886;28;20212;-73
2022/10/21 07:45:58;;;;;;;23.63;15.93;;;;;;;13.65;100.00;99575.13;5054562;28;20193;-74
2022/10/21 07:48:24;;;;;;;22.20;15.53;;;;;;;13.78;100.00;99580.19;5049243;28;20595;-74
2022/10/21 07:50:50;;;;;;;30.50;16.17;;;;;;;13.78;100.00;99580.19;5051594;28;20367;-73
2022/10/21 07:53:16;;;;;;;24.40;16.47;;;;;;;13.81;100.00;99576.56;5061888;28;20237;-73
2022/10/21 07:55:41;;;;;;;23.03;16.17;;;;;;;13.85;100.00;99580.53;5049304;28;20221;-75
2022/10/21 07:58:06;;;;;;;24.53;17.83;;;;;;;13.92;100.00;99575.72;5049497;28;20292;-73
2022/10/21 08:00:32;;;;;;;21.70;16.27;;;;;;;13.87;100.00;99576.09;5043030;28;20227;-73
2022/10/21 08:02:57;;;;;;;21.93;16.10;;;;;;;13.91;100.00;99566.34;5071458;28;20634;-74
2022/10/21 08:05:23;;;;;;;22.20;15.30;;;;;;;13.84;100.00;99569.38;5039768;28;20181;-73
2022/10/21 08:07:48;;;;;;;19.77;14.90;;;;;;;13.88;100.00;99569.97;5053488;28;20192;-74
2022/10/21 08:10:14;;;;;;;19.87;15.90;;;;;;;13.82;100.00;99584.19;5046653;28;20545;-74
2022/10/21 08:12:39;;;;;;;17.73;14.43;;;;;;;13.97;100.00;99583.97;5067588;28;20224;-61
2022/10/21 08:15:05;;;;;;;22.77;14.67;;;;;;;14.08;100.00;99578.78;5053910;28;20992;-75
2022/10/21 08:17:30;;;;;;;23.57;15.60;;;;;;;14.12;100.00;99576.78;5052394;28;20224;-75
2022/10/21 08:19:55;;;;;;;18.67;14.13;;;;;;;14.01;100.00;99572.44;5053885;28;20192;-75
2022/10/21 08:22:21;;;;;;;16.10;13.10;;;;;;;13.88;100.00;99570.78;5069439;28;20302;-73
2022/10/21 08:24:46;;;;;;;23.80;14.23;;;;;;;14.02;100.00;99569.72;5045023;28;20177;-73
2022/10/21 08:27:11;;;;;;;20.80;14.17;;;;;;;14.23;100.00;99571.59;5053096;28;20181;-73
2022/10/21 08:29:37;;;;;;;19.77;13.80;;;;;;;14.22;100.00;99569.94;5053514;28;20578;-72
2022/10/21 08:32:03;;;;;;;22.20;13.97;;;;;;;14.25;100.00;99567.13;5072438;28;20319;-69
2022/10/21 08:34:28;;;;;;;16.37;13.40;;;;;;;14.14;100.00;99567.94;5051925;28;20177;-74
2022/10/21 08:36:54;;;;;;;16.80;13.23;;;;;;;14.29;100.00;99559.91;5034346;28;20682;-73
2022/10/21 08:39:19;;;;;;;20.17;14.97;;;;;;;14.16;100.00;99560.88;5051809;28;20191;-73
2022/10/21 08:41:54;;;;;;;23.50;16.60;;;;;;;14.07;100.00;99559.03;5064278;28;20239;-74
2022/10/21 08:44:35;;;;;;;22.57;16.10;;;;;;;13.96;100.00;99564.22;5050044;28;20623;-73
2022/10/21 08:47:15;;;;;;;19.23;16.47;;;;;;;13.79;100.00;99571.50;5052630;28;20192;-72
2022/10/21 08:50:03;;;;;;;24.87;16.40;;;;;;;13.95;100.00;99570.31;5052827;28;20600;-73
2022/10/21 08:52:48;;;;;;;24.07;17.73;;;;;;;13.88;100.00;99572.56;5041519;28;20237;-72
2022/10/21 08:55:13;;;;;;;21.80;17.87;;;;;;;13.91;100.00;99568.91;5053029;28;20209;-73
2022/10/21 08:57:38;;;;;;;23.50;17.10;;;;;;;13.92;100.00;99567.94;5052144;28;20202;-74
2022/10/21 09:00:27;;;;;;;23.10;16.97;;;;;;;13.94;100.00;99576.41;5035280;28;20200;-74
2022/10/21 09:03:14;;;;;;;20.37;17.10;;;;;;;13.97;100.00;99577.00;5078143;28;20201;-73
2022/10/21 09:06:09;;;;;;;21.90;16.73;;;;;;;14.07;100.00;99584.88;5047238;28;20182;-72
2022/10/21 09:08:54;;;;;;;20.30;15.47;;;;;;;14.13;100.00;99583.59;5051891;28;20200;-72
2022/10/21 09:11:30;;;;;;;20.60;15.83;;;;;;;14.08;100.00;99583.94;5062751;28;20323;-73
2022/10/21 09:14:40;;;;;;;18.00;15.73;;;;;;;14.05;100.00;99589.34;5061105;28;20205;-71
2022/10/21 09:17:30;;;;;;;17.90;14.63;;;;;;;14.18;100.00;99589.22;5019102;28;20197;-73
2022/10/21 09:20:21;;;;;;;18.57;13.83;;;;;;;14.29;100.00;99589.22;5052549;28;20307;-75
2022/10/21 09:23:16;;;;;;;17.37;13.43;;;;;;;14.15;100.00;99582.53;5040903;28;20366;-72
2022/10/21 09:25:53;;;;;;;15.87;12.30;;;;;;;13.99;100.00;99579.47;5052485;28;20177;-71
2022/10/21 09:28:19;;;;;;;15.60;10.97;;;;;;;14.18;100.00;99587.44;5051233;28;20184;-72
2022/10/21 09:30:44;;;;;;;13.33;11.37;;;;;;;14.08;100.00;99591.69;5043261;28;20658;-73
2022/10/21 09:33:24;;;;;;;12.27;11.07;;;;;;;13.98;100.00;99577.81;5060055;28;20189;-73
2022/10/21 09:35:58;;;;;;;13.80;11.03;;;;;;;14.13;100.00;99579.22;5051943;28;20223;-72
2022/10/21 09:38:48;;;;;;;11.50;10.30;;;;;;;14.18;100.00;99597.00;4967641;28;991579;-74
2022/10/21 09:41:20;;;;;;;90.00;85.25;;;;;;;14.67;100.00;99600.09;3119162;28;991883;-76
2022/10/21 09:43:55;;;;;;;;;;;;;;;15.02;100.00;99586.09;2403894;28;993423;-83
2022/10/21 09:46:21;;;;;;;;;;;;;;;14.97;100.00;99598.56;2852762;28;993188;-78
2022/10/21 09:48:50;;;;;;;11.17;10.03;;;;;;;15.04;100.00;99597.13;4528847;28;992337;-77
2022/10/21 09:51:23;;;;;;;10.47;8.00;;;;;;;14.36;100.00;99592.97;5051666;28;20749;-74
2022/10/21 09:53:55;;;;;;;7.73;7.10;;;;;;;14.32;100.00;99601.09;5051356;28;20197;-72
2022/10/21 09:57:03;;;;;;;11.20;7.53;;;;;;;14.21;100.00;99591.56;5045081;28;20695;-69
2022/10/21 09:59:30;;;;;;;6.60;6.00;;;;;;;14.23;100.00;99594.84;5004792;28;20266;-71
2022/10/21 10:01:58;;;;;;;6.20;5.60;;;;;;;14.28;100.00;99597.91;5058974;28;20223;-72
2022/10/21 10:04:28;;;;;;;6.67;6.07;;;;;;;14.41;100.00;99594.34;5052442;28;20276;-74
2022/10/21 10:06:53;;;;;;;5.77;5.17;;;;;;;14.41;100.00;99602.94;5047174;28;20193;-72
2022/10/21 10:09:28;;;;;;;7.10;5.63;;;;;;;14.47;100.00;99602.44;5051461;28;20181;-72
2022/10/21 10:11:55;;;;;;;5.80;5.03;;;;;;;14.56;100.00;99597.50;5064042;28;20319;-72
2022/10/21 10:14:26;;;;;;;8.60;5.37;;;;;;;14.74;100.00;99601.25;5045539;28;20204;-72
2022/10/21 10:16:52;;;;;;;5.60;4.83;;;;;;;14.79;100.00;99601.69;5043386;28;21448;-72
2022/10/21 10:19:26;;;;;;;6.20;4.90;;;;;;;14.70;100.00;99602.44;5047585;28;20213;-71
2022/10/21 10:22:08;;;;;;;6.40;4.83;;;;;;;14.53;100.00;99603.75;5058942;28;20257;-71
2022/10/21 10:24:33;;;;;;;5.77;4.73;;;;;;;14.61;100.00;99592.78;5050075;28;20843;-75
2022/10/21 10:27:22;;;;;;;4.73;4.20;;;;;;;14.55;100.00;99603.63;5047010;28;20188;-73
2022/10/21 10:29:57;;;;;;;6.50;4.90;;;;;;;14.72;100.00;99603.13;5032141;28;20666;-72
2022/10/21 10:32:27;;;;;;;5.17;4.60;;;;;;;14.73;100.00;99604.78;5062682;28;20241;-73
2022/10/21 10:34:56;;;;;;;12.43;5.20;;;;;;;14.82;100.00;99598.03;5042479;28;20181;-60
2022/10/21 10:37:25;;;;;;;7.33;5.00;;;;;;;14.77;100.00;99595.84;5035117;28;20210;-59
2022/10/21 10:39:54;;;;;;;5.63;4.17;;;;;;;14.83;100.00;99590.16;5040874;28;20294;-60
2022/10/21 10:42:31;;;;;;;5.03;4.53;;;;;;;14.93;100.00;99589.41;5056525;28;20254;-60
2022/10/21 10:45:01;;;;;;;5.20;4.70;;;;;;;14.85;100.00;99579.66;5031172;28;20219;-60
2022/10/21 10:47:30;;;;;;;5.70;4.47;;;;;;;14.81;100.00;99576.50;5046303;28;20185;-60
2022/10/21 10:49:55;;;;;;;4.70;4.30;;;;;;;14.53;100.00;99567.50;5046731;28;20575;-60
2022/10/21 10:52:23;;;;;;;7.23;4.70;;;;;;;14.67;100.00;99563.84;5069893;28;20228;-61
2022/10/21 10:55:10;;;;;;;4.70;4.23;;;;;;;14.63;100.00;99560.66;5050489;28;20185;-67
2022/10/21 10:57:38;;;;;;;5.07;4.47;;;;;;;14.70;100.00;99561.03;5047416;28;20235;-68
2022/10/21 11:00:19;;;;;;;9.63;8.17;;;;;;;14.51;100.00;99562.47;5061688;28;20380;-67
2022/10/21 11:03:01;;;;;;;7.83;4.07;;;;;;;14.59;100.00;99563.63;5038535;28;20217;-68
2022/10/21 11:05:35;;;;;;;5.47;3.63;;;;;;;14.57;100.00;99558.53;5040442;28;20244;-67
2022/10/21 11:08:31;;;;;;;6.30;3.20;;;;;;;14.46;100.00;99550.81;5044407;28;20272;-67
2022/10/21 11:11:03;;;;;;;4.07;3.27;;;;;;;14.52;100.00;99560.69;5038216;28;20224;-69
2022/10/21 11:13:28;;;;;;;5.87;3.57;;;;;;;14.59;100.00;99572.19;5043027;28;20185;-69
2022/10/21 11:16:20;;;;;;;5.47;3.33;;;;;;;14.54;100.00;99576.91;5054721;28;20655;-67
2022/10/21 11:19:03;;;;;;;4.90;3.00;;;;;;;14.69;100.00;99574.91;5048831;28;20185;-67
2022/10/21 11:21:53;;;;;;;3.27;2.90;;;;;;;14.75;100.00;99592.53;5064176;28;20235;-69
2022/10/21 11:25:04;;;;;;;4.20;3.20;;;;;;;15.17;100.00;99602.94;5049544;28;20185;-66